createdAt,value
2023-03-21T00:00:23.458Z,97712.50
2023-03-21T00:03:10.103Z,97709.73
2023-03-21T00:05:40.667Z,97708.11
2023-03-21T00:08:07.835Z,97706.32
2023-03-21T00:10:43.233Z,97705.38
2023-03-21T00:13:14.063Z,97703.86
2023-03-21T00:15:46.314Z,97703.52
2023-03-21T00:18:20.958Z,97706.59
2023-03-21T00:21:22.327Z,97705.61
2023-03-21T00:23:47.642Z,97707.29
2023-03-21T00:26:14.526Z,97703.79
2023-03-21T00:28:41.914Z,97701.16
2023-03-21T00:31:08.743Z,97695.25
2023-03-21T00:33:35.568Z,97693.48
2023-03-21T00:36:06.357Z,97691.53
2023-03-21T00:38:33.785Z,97690.98
2023-03-21T00:41:04.747Z,97690.36
2023-03-21T00:43:33.961Z,97688.77
2023-03-21T00:46:01.269Z,97688.23
2023-03-21T00:48:28.898Z,97687.23
2023-03-21T00:50:56.468Z,97685.27
2023-03-21T00:53:22.945Z,97687.79
2023-03-21T00:55:49.641Z,97689.67
2023-03-21T00:58:16.712Z,97692.08
2023-03-21T01:00:43.603Z,97688.11
2023-03-21T01:03:21.682Z,97688.91
2023-03-21T01:05:50.552Z,97687.17
2023-03-21T01:08:25.972Z,97686.33
2023-03-21T01:10:54.997Z,97683.06
2023-03-21T01:13:22.615Z,97683.08
2023-03-21T01:15:50.857Z,97678.40
2023-03-21T01:18:18.479Z,97682.88
2023-03-21T01:20:45.280Z,97684.30
2023-03-21T01:23:12.924Z,97681.89
2023-03-21T01:25:39.706Z,97679.86
2023-03-21T01:28:06.717Z,97676.16
2023-03-21T01:30:37.025Z,97676.85
2023-03-21T01:33:08.285Z,97679.13
2023-03-21T01:35:48.004Z,97677.96
2023-03-21T01:38:16.751Z,97679.42
2023-03-21T01:40:44.808Z,97681.36
2023-03-21T01:43:22.017Z,97680.87
2023-03-21T01:46:08.162Z,97680.33
2023-03-21T01:49:09.568Z,97676.92
2023-03-21T01:51:38.866Z,97677.65
2023-03-21T01:54:08.442Z,97674.77
2023-03-21T01:56:36.749Z,97672.73
2023-03-21T01:59:29.964Z,97670.52
2023-03-21T02:02:15.961Z,97672.38
2023-03-21T02:04:52.488Z,97675.68
2023-03-21T02:07:27.572Z,97674.34
2023-03-21T02:09:59.540Z,97679.34
2023-03-21T02:12:26.873Z,97675.23
2023-03-21T02:14:54.527Z,97673.67
2023-03-21T02:17:46.788Z,97671.75
2023-03-21T02:20:36.380Z,97678.30
2023-03-21T02:23:21.916Z,97670.55
2023-03-21T02:25:57.607Z,97670.74
2023-03-21T02:28:40.216Z,97667.49
2023-03-21T02:31:17.525Z,97667.77
2023-03-21T02:33:53.821Z,97667.85
2023-03-21T02:36:30.223Z,97669.19
2023-03-21T02:39:09.221Z,97663.15
2023-03-21T02:41:40.108Z,97664.76
2023-03-21T02:44:26.381Z,97665.95
2023-03-21T02:47:05.926Z,97665.35
2023-03-21T02:49:51.023Z,97666.14
2023-03-21T02:52:35.490Z,97662.84
2023-03-21T02:55:07.839Z,97663.92
2023-03-21T02:57:43.127Z,97665.73
2023-03-21T03:00:16.603Z,97666.38
2023-03-21T03:02:45.419Z,97668.48
2023-03-21T03:05:21.316Z,97671.63
2023-03-21T03:07:59.510Z,97667.05
2023-03-21T03:10:44.854Z,97670.67
2023-03-21T03:13:20.296Z,97670.04
2023-03-21T03:15:56.080Z,97672.30
2023-03-21T03:18:37.522Z,97672.59
2023-03-21T03:21:09.931Z,97676.18
2023-03-21T03:23:43.967Z,97673.39
2023-03-21T03:26:29.281Z,97671.73
2023-03-21T03:29:00.882Z,97671.55
2023-03-21T03:31:46.404Z,97671.08
2023-03-21T03:34:15.738Z,97669.19
2023-03-21T03:36:45.907Z,97669.84
2023-03-21T03:39:14.570Z,97666.59
2023-03-21T03:42:06.112Z,97665.76
2023-03-21T03:44:35.520Z,97663.37
2023-03-21T03:47:08.477Z,97662.87
2023-03-21T03:49:42.570Z,97658.75
2023-03-21T03:52:11.285Z,97658.77
2023-03-21T03:54:46.045Z,97658.52
2023-03-21T03:57:12.913Z,97660.23
2023-03-21T03:59:40.580Z,97664.54
2023-03-21T04:02:29.713Z,97665.04
2023-03-21T04:04:55.998Z,97659.05
2023-03-21T04:07:22.295Z,97664.55
2023-03-21T04:09:50.192Z,97662.48
2023-03-21T04:12:18.341Z,97668.06
2023-03-21T04:15:15.875Z,97669.39
2023-03-21T04:17:45.773Z,97667.93
2023-03-21T04:20:20.762Z,97667.55
2023-03-21T04:22:50.509Z,97667.08
2023-03-21T04:25:30.764Z,97667.98
2023-03-21T04:28:00.198Z,97668.54
2023-03-21T04:30:38.488Z,97670.10
2023-03-21T04:33:13.802Z,97670.95
2023-03-21T04:35:43.703Z,97666.68
2023-03-21T04:38:10.005Z,97665.81
2023-03-21T04:40:36.816Z,97667.02
2023-03-21T04:43:03.253Z,97665.67
2023-03-21T04:45:29.652Z,97664.51
2023-03-21T04:47:56.355Z,97666.27
2023-03-21T04:50:23.238Z,97661.32
2023-03-21T04:52:49.491Z,97662.73
2023-03-21T04:55:16.063Z,97662.08
2023-03-21T04:57:42.413Z,97661.31
2023-03-21T05:00:09.036Z,97661.89
2023-03-21T05:02:35.867Z,97659.70
2023-03-21T05:05:02.260Z,97657.52
2023-03-21T05:07:29.800Z,97658.42
2023-03-21T05:09:56.119Z,97656.89
2023-03-21T05:12:22.395Z,97652.62
2023-03-21T05:14:49.033Z,97651.61
2023-03-21T05:17:15.502Z,97656.05
2023-03-21T05:19:42.455Z,97656.57
2023-03-21T05:22:09.844Z,97662.55
2023-03-21T05:24:36.786Z,97662.11
2023-03-21T05:27:03.256Z,97662.71
2023-03-21T05:29:32.325Z,97660.90
2023-03-21T05:32:01.975Z,97665.08
2023-03-21T05:34:28.731Z,97664.21
2023-03-21T05:36:55.094Z,97665.92
2023-03-21T05:39:22.340Z,97667.52
2023-03-21T05:42:01.313Z,97670.17
2023-03-21T05:44:27.673Z,97671.09
2023-03-21T05:46:54.159Z,97673.52
2023-03-21T05:49:25.709Z,97678.05
2023-03-21T05:51:54.388Z,97677.02
2023-03-21T05:54:20.767Z,97676.55
2023-03-21T05:56:47.679Z,97678.73
2023-03-21T05:59:25.447Z,97678.32
2023-03-21T06:01:53.030Z,97682.48
2023-03-21T06:04:20.050Z,97680.74
2023-03-21T06:06:46.390Z,97681.33
2023-03-21T06:09:13.166Z,97678.69
2023-03-21T06:11:43.524Z,97682.46
2023-03-21T06:14:29.234Z,97685.52
2023-03-21T06:17:12.999Z,97684.66
2023-03-21T06:19:44.761Z,97684.92
2023-03-21T06:22:17.598Z,97682.44
2023-03-21T06:24:43.853Z,97688.46
2023-03-21T06:27:10.360Z,97688.13
2023-03-21T06:29:49.770Z,97691.90
2023-03-21T06:32:16.431Z,97689.44
2023-03-21T06:34:43.081Z,97688.98
2023-03-21T06:37:12.408Z,97687.50
2023-03-21T06:39:38.796Z,97687.91
2023-03-21T06:42:05.306Z,97690.36
2023-03-21T06:44:31.777Z,97687.55
2023-03-21T06:47:02.449Z,97686.36
2023-03-21T06:49:28.896Z,97690.46
2023-03-21T06:51:57.436Z,97694.14
2023-03-21T06:54:23.952Z,97692.42
2023-03-21T06:56:59.396Z,97690.13
2023-03-21T06:59:28.794Z,97693.30
2023-03-21T07:02:00.174Z,97694.46
2023-03-21T07:04:26.777Z,97694.46
2023-03-21T07:06:54.247Z,97697.36
2023-03-21T07:09:21.300Z,97702.12
2023-03-21T07:11:47.675Z,97699.52
2023-03-21T07:14:14.066Z,97701.55
2023-03-21T07:16:40.466Z,97703.98
2023-03-21T07:19:06.788Z,97705.98
2023-03-21T07:21:33.045Z,97706.61
2023-03-21T07:23:59.847Z,97706.90
2023-03-21T07:26:26.192Z,97705.75
2023-03-21T07:28:52.550Z,97709.05
2023-03-21T07:31:18.855Z,97708.71
2023-03-21T07:33:48.022Z,97708.29
2023-03-21T07:36:15.207Z,97710.18
2023-03-21T07:38:42.667Z,97713.55
2023-03-21T07:41:09.535Z,97712.98
2023-03-21T07:43:37.181Z,97715.63
2023-03-21T07:46:08.495Z,97716.02
2023-03-21T07:48:34.855Z,97717.17
2023-03-21T07:51:01.423Z,97715.71
2023-03-21T07:53:27.853Z,97717.64
2023-03-21T07:55:55.001Z,97721.50
2023-03-21T07:58:22.357Z,97719.22
2023-03-21T08:00:49.131Z,97719.80
2023-03-21T08:03:15.468Z,97720.15
2023-03-21T08:05:42.294Z,97722.56
2023-03-21T08:08:08.844Z,97719.49
2023-03-21T08:10:35.129Z,97719.18
2023-03-21T08:13:01.495Z,97724.85
2023-03-21T08:15:27.806Z,97721.63
2023-03-21T08:17:54.272Z,97722.28
2023-03-21T08:20:21.425Z,97722.95
2023-03-21T08:22:48.637Z,97727.04
2023-03-21T08:25:15.618Z,97725.24
2023-03-21T08:27:42.312Z,97732.51
2023-03-21T08:30:09.655Z,97731.52
2023-03-21T08:32:35.933Z,97734.00
2023-03-21T08:35:02.629Z,97733.39
2023-03-21T08:37:29.259Z,97731.70
2023-03-21T08:39:55.680Z,97730.70
2023-03-21T08:42:22.528Z,97737.46
2023-03-21T08:44:49.382Z,97740.72
2023-03-21T08:47:15.693Z,97739.92
2023-03-21T08:49:42.160Z,97738.84
2023-03-21T08:52:08.496Z,97738.05
2023-03-21T08:54:34.894Z,97739.56
2023-03-21T08:57:01.700Z,97740.33
2023-03-21T08:59:28.234Z,97742.06
2023-03-21T09:01:54.820Z,97743.02
2023-03-21T09:04:21.459Z,97745.30
2023-03-21T09:06:47.791Z,97742.56
2023-03-21T09:09:14.780Z,97744.65
2023-03-21T09:11:41.357Z,97745.52
2023-03-21T09:14:07.990Z,97746.69
2023-03-21T09:16:34.404Z,97749.17
2023-03-21T09:19:00.795Z,97749.50
2023-03-21T09:21:27.382Z,97753.42
2023-03-21T09:23:54.262Z,97753.21
2023-03-21T09:26:21.037Z,97754.75
2023-03-21T09:28:47.424Z,97755.27
2023-03-21T09:31:14.118Z,97763.59
2023-03-21T09:33:40.598Z,97757.48
2023-03-21T09:36:08.165Z,97760.48
2023-03-21T09:38:34.581Z,97760.13
2023-03-21T09:41:00.854Z,97762.52
2023-03-21T09:43:30.163Z,97764.75
2023-03-21T09:46:02.462Z,97764.41
2023-03-21T09:48:57.133Z,97765.17
2023-03-21T09:51:31.240Z,97768.59
2023-03-21T09:54:02.428Z,97769.51
2023-03-21T09:56:29.187Z,97767.90
2023-03-21T09:58:57.167Z,97766.21
2023-03-21T10:01:30.458Z,97763.80
2023-03-21T10:03:58.317Z,97760.26
2023-03-21T10:06:25.439Z,97761.41
2023-03-21T10:08:52.276Z,97761.41
2023-03-21T10:11:22.633Z,97759.92
2023-03-21T10:14:01.193Z,97757.98
2023-03-21T10:16:32.343Z,97761.31
2023-03-21T10:19:01.224Z,97760.90
2023-03-21T10:21:56.642Z,97759.59
2023-03-21T10:24:16.801Z,97760.17
2023-03-21T10:26:43.698Z,97761.73
2023-03-21T10:29:12.296Z,97764.53
2023-03-21T10:31:39.344Z,97771.24
2023-03-21T10:34:20.042Z,97770.48
2023-03-21T10:36:46.702Z,97770.22
2023-03-21T10:39:25.478Z,97770.85
2023-03-21T10:41:52.123Z,97769.30
2023-03-21T10:44:18.845Z,97773.88
2023-03-21T10:46:52.051Z,97775.86
2023-03-21T10:49:19.171Z,97776.06
2023-03-21T10:51:47.257Z,97775.61
2023-03-21T10:54:15.625Z,97777.75
2023-03-21T10:56:50.164Z,97772.83
2023-03-21T10:59:20.107Z,97770.63
2023-03-21T11:01:51.812Z,97770.17
2023-03-21T11:04:20.778Z,97771.23
2023-03-21T11:07:05.643Z,97768.27
2023-03-21T11:09:52.506Z,97767.64
2023-03-21T11:12:31.897Z,97766.20
2023-03-21T11:15:13.375Z,97766.69
2023-03-21T11:17:39.724Z,97769.14
2023-03-21T11:20:07.132Z,97764.41
2023-03-21T11:22:38.793Z,97762.89
2023-03-21T11:25:07.480Z,97764.45
2023-03-21T11:27:34.273Z,97764.65
2023-03-21T11:30:03.200Z,97767.52
2023-03-21T11:32:32.392Z,97764.71
2023-03-21T11:35:01.986Z,97762.84
2023-03-21T11:37:33.672Z,97763.09
2023-03-21T11:40:26.417Z,97760.52
2023-03-21T11:42:57.026Z,97759.10
2023-03-21T11:45:23.401Z,97754.77
2023-03-21T11:47:50.690Z,97756.16
2023-03-21T11:50:32.239Z,97757.68
2023-03-21T11:53:16.922Z,97754.77
2023-03-21T11:55:46.493Z,97755.54
2023-03-21T11:58:20.674Z,97749.84
2023-03-21T12:01:19.708Z,97748.59
2023-03-21T12:03:55.139Z,97750.00
2023-03-21T12:06:26.808Z,97749.70
2023-03-21T12:09:12.317Z,97748.11
2023-03-21T12:11:58.931Z,97748.27
2023-03-21T12:14:31.482Z,97744.13
2023-03-21T12:17:30.501Z,97746.38
2023-03-21T12:19:57.099Z,97749.86
2023-03-21T12:22:23.366Z,97753.89
2023-03-21T12:24:53.053Z,97749.61
2023-03-21T12:27:29.161Z,97747.34
2023-03-21T12:30:14.961Z,97747.50
2023-03-21T12:32:51.303Z,97745.33
2023-03-21T12:35:34.178Z,97740.72
2023-03-21T12:38:14.162Z,97741.95
2023-03-21T12:40:43.779Z,97738.92
2023-03-21T12:43:13.162Z,97740.00
2023-03-21T12:45:46.987Z,97739.02
2023-03-21T12:48:17.415Z,97739.08
2023-03-21T12:50:45.079Z,97738.66
2023-03-21T12:53:34.206Z,97732.67
2023-03-21T12:56:02.342Z,97730.52
2023-03-21T12:58:30.594Z,97732.31
2023-03-21T13:00:59.451Z,97724.84
2023-03-21T13:03:40.338Z,97720.17
2023-03-21T13:06:10.147Z,97716.83
2023-03-21T13:08:39.770Z,97717.55
2023-03-21T13:11:06.835Z,97716.93
2023-03-21T13:13:59.543Z,97716.77
2023-03-21T13:16:29.728Z,97716.64
2023-03-21T13:19:07.690Z,97716.71
2023-03-21T13:21:48.078Z,97714.63
2023-03-21T13:24:23.036Z,97717.63
2023-03-21T13:26:54.786Z,97713.52
2023-03-21T13:29:32.667Z,97712.17
2023-03-21T13:32:06.972Z,97713.95
2023-03-21T13:34:33.378Z,97715.70
2023-03-21T13:37:00.492Z,97716.66
2023-03-21T13:39:27.899Z,97716.27
2023-03-21T13:41:54.794Z,97714.16
2023-03-21T13:44:24.438Z,97715.67
2023-03-21T13:46:58.772Z,97713.89
2023-03-21T13:49:27.620Z,97714.79
2023-03-21T13:51:55.340Z,97711.31
2023-03-21T13:54:21.684Z,97708.90
2023-03-21T13:56:49.784Z,97710.88
2023-03-21T13:59:36.128Z,97707.06
2023-03-21T14:02:39.733Z,97706.64
2023-03-21T14:05:16.566Z,97703.89
2023-03-21T14:07:45.942Z,97699.34
2023-03-21T14:10:23.700Z,97697.58
2023-03-21T14:12:51.367Z,97699.09
2023-03-21T14:15:40.938Z,97699.27
2023-03-21T14:18:28.196Z,97697.46
2023-03-21T14:21:02.309Z,97698.46
2023-03-21T14:23:30.549Z,97695.35
2023-03-21T14:25:56.882Z,97693.31
2023-03-21T14:28:24.935Z,97694.77
2023-03-21T14:30:55.368Z,97693.27
2023-03-21T14:33:31.053Z,97690.59
2023-03-21T14:35:58.611Z,97689.03
2023-03-21T14:38:27.317Z,97687.63
2023-03-21T14:40:55.101Z,97689.97
2023-03-21T14:43:22.804Z,97690.01
2023-03-21T14:45:50.156Z,97690.48
2023-03-21T14:48:16.574Z,97693.72
2023-03-21T14:50:44.158Z,97689.79
2023-03-21T14:53:13.753Z,97690.95
2023-03-21T14:55:59.018Z,97685.46
2023-03-21T14:58:25.909Z,97687.19
2023-03-21T15:00:54.066Z,97687.91
2023-03-21T15:03:22.132Z,97686.78
2023-03-21T15:05:49.199Z,97685.48
2023-03-21T15:08:17.116Z,97685.90
2023-03-21T15:11:08.275Z,97685.84
2023-03-21T15:13:55.185Z,97685.95
2023-03-21T15:16:22.414Z,97687.15
2023-03-21T15:18:49.127Z,97689.02
2023-03-21T15:21:20.760Z,97684.85
2023-03-21T15:23:49.543Z,97685.96
2023-03-21T15:26:17.045Z,97684.71
2023-03-21T15:28:44.745Z,97683.84
2023-03-21T15:31:18.802Z,97678.89
2023-03-21T15:33:46.790Z,97681.13
2023-03-21T15:36:17.981Z,97680.67
2023-03-21T15:38:44.591Z,97678.91
2023-03-21T15:41:19.942Z,97678.42
2023-03-21T15:43:46.994Z,97680.47
2023-03-21T15:46:15.052Z,97676.33
2023-03-21T15:48:41.416Z,97674.05
2023-03-21T15:51:13.607Z,97674.68
2023-03-21T15:53:42.036Z,97671.29
2023-03-21T15:56:09.990Z,97668.02
2023-03-21T15:58:39.016Z,97668.39
2023-03-21T16:01:07.719Z,97665.50
2023-03-21T16:03:37.834Z,97663.87
2023-03-21T16:06:16.164Z,97663.07
2023-03-21T16:08:49.964Z,97662.41
2023-03-21T16:11:18.515Z,97662.21
2023-03-21T16:13:45.105Z,97665.57
2023-03-21T16:16:20.572Z,97665.63
2023-03-21T16:18:47.914Z,97671.89
2023-03-21T16:21:15.616Z,97672.45
2023-03-21T16:23:42.429Z,97669.77
2023-03-21T16:26:22.679Z,97668.99
2023-03-21T16:28:49.689Z,97668.70
2023-03-21T16:31:17.420Z,97672.34
2023-03-21T16:33:44.340Z,97672.16
2023-03-21T16:36:14.773Z,97672.55
2023-03-21T16:38:41.390Z,97676.54
2023-03-21T16:41:11.304Z,97677.95
2023-03-21T16:43:37.783Z,97679.40
2023-03-21T16:46:04.858Z,97680.40
2023-03-21T16:48:31.277Z,97682.27
2023-03-21T16:50:58.234Z,97689.88
2023-03-21T16:53:24.587Z,97688.14
2023-03-21T16:55:51.000Z,97686.69
2023-03-21T16:58:17.526Z,97688.23
2023-03-21T17:00:44.155Z,97689.65
2023-03-21T17:03:15.209Z,97693.17
2023-03-21T17:05:41.703Z,97695.14
2023-03-21T17:08:14.836Z,97699.80
2023-03-21T17:10:44.862Z,97697.83
2023-03-21T17:13:11.374Z,97695.98
2023-03-21T17:15:37.844Z,97697.48
2023-03-21T17:18:04.574Z,97698.64
2023-03-21T17:20:32.251Z,97698.33
2023-03-21T17:22:59.160Z,97697.59
2023-03-21T17:25:27.760Z,97700.98
2023-03-21T17:27:54.101Z,97696.98
2023-03-21T17:30:20.558Z,97700.53
2023-03-21T17:32:47.597Z,97703.39
2023-03-21T17:35:14.005Z,97704.33
2023-03-21T17:37:40.366Z,97704.94
2023-03-21T17:40:07.847Z,97708.21
2023-03-21T17:42:34.468Z,97707.36
2023-03-21T17:45:00.830Z,97709.88
2023-03-21T17:47:27.149Z,97714.05
2023-03-21T17:49:53.665Z,97716.81
2023-03-21T17:52:20.419Z,97717.38
2023-03-21T17:54:46.953Z,97717.66
2023-03-21T17:57:13.321Z,97717.48
2023-03-21T17:59:39.644Z,97717.36
2023-03-21T18:02:07.211Z,97716.35
2023-03-21T18:04:33.815Z,97719.50
2023-03-21T18:07:01.134Z,97719.23
2023-03-21T18:09:27.833Z,97716.38
2023-03-21T18:11:54.756Z,97716.83
2023-03-21T18:14:27.114Z,97717.55
2023-03-21T18:16:55.151Z,97720.17
2023-03-21T18:19:21.643Z,97719.95
2023-03-21T18:21:48.095Z,97718.80
2023-03-21T18:24:15.116Z,97718.10
2023-03-21T18:26:42.206Z,97719.55
2023-03-21T18:30:13.207Z,97715.33
2023-03-21T18:32:05.892Z,97718.89
2023-03-21T18:34:35.236Z,97723.86
2023-03-21T18:37:04.163Z,97720.08
2023-03-21T18:39:31.836Z,97725.09
2023-03-21T18:41:58.848Z,97721.80
2023-03-21T18:44:29.464Z,97722.35
2023-03-21T18:46:56.711Z,97724.98
2023-03-21T18:52:10.888Z,97716.23
2023-03-21T18:54:37.777Z,97715.94
2023-03-21T18:59:51.154Z,97716.09
2023-03-21T19:02:17.527Z,97719.98
2023-03-21T19:04:44.064Z,97718.54
2023-03-21T19:07:10.531Z,97722.95
2023-03-21T19:09:58.150Z,97725.61
2023-03-21T19:12:24.221Z,97723.20
2023-03-21T19:14:50.685Z,97724.27
2023-03-21T19:18:07.183Z,97729.27
2023-03-21T19:20:04.412Z,97729.66
2023-03-21T19:22:30.968Z,97729.73
2023-03-21T19:24:58.676Z,97728.96
2023-03-21T19:27:25.211Z,97731.09
2023-03-21T19:30:08.426Z,97732.17
2023-03-21T19:32:38.015Z,97732.23
2023-03-21T19:35:04.967Z,97736.89
2023-03-21T19:37:31.321Z,97740.45
2023-03-21T19:39:58.438Z,97735.67
2023-03-21T19:42:28.388Z,97735.58
2023-03-21T19:44:56.472Z,97733.18
2023-03-21T19:47:23.547Z,97731.04
2023-03-21T19:50:35.004Z,97732.14
2023-03-21T19:52:36.470Z,97728.12
2023-03-21T19:55:04.119Z,97731.61
2023-03-21T19:57:30.605Z,97731.79
2023-03-21T19:59:58.009Z,97733.09
2023-03-21T20:02:35.440Z,97733.70
2023-03-21T20:05:04.703Z,97731.81
2023-03-21T20:07:34.318Z,97732.92
2023-03-21T20:10:00.815Z,97731.52
2023-03-21T20:12:27.400Z,97730.48
2023-03-21T20:15:07.251Z,97735.03
2023-03-21T20:17:42.205Z,97732.30
2023-03-21T20:20:08.825Z,97734.58
2023-03-21T20:23:03.172Z,97733.89
2023-03-21T20:25:22.694Z,97730.39
2023-03-21T20:28:09.423Z,97731.40
2023-03-21T20:30:36.967Z,97728.88
2023-03-21T20:33:03.675Z,97730.45
2023-03-21T20:36:16.584Z,97730.88
2023-03-21T20:38:18.050Z,97726.87
2023-03-21T20:40:44.396Z,97729.54
2023-03-21T20:43:52.176Z,97728.09
2023-03-21T20:46:03.310Z,97731.48
2023-03-21T20:48:29.673Z,97729.94
2023-03-21T20:51:45.086Z,97732.20
2023-03-21T20:53:52.712Z,97731.59
2023-03-21T20:56:19.087Z,97729.85
2023-03-21T20:59:02.055Z,97730.20
2023-03-21T21:01:33.120Z,97729.84
2023-03-21T21:04:00.501Z,97724.27
2023-03-21T21:06:27.103Z,97725.60
2023-03-21T21:08:54.206Z,97726.92
2023-03-21T21:12:05.007Z,97727.92
2023-03-21T21:14:07.536Z,97726.05
2023-03-21T21:16:33.906Z,97725.11
2023-03-21T21:19:00.521Z,97725.31
2023-03-21T21:21:26.980Z,97721.70
2023-03-21T21:23:53.405Z,97726.17
2023-03-21T21:26:19.714Z,97725.77
2023-03-21T21:28:46.326Z,97727.89
2023-03-21T21:31:14.138Z,97727.49
2023-03-21T21:33:40.447Z,97723.08
2023-03-21T21:36:08.171Z,97719.02
2023-03-21T21:38:34.999Z,97716.89
2023-03-21T21:41:01.746Z,97717.35
2023-03-21T21:43:28.645Z,97718.80
2023-03-21T21:45:55.356Z,97718.02
2023-03-21T21:48:22.149Z,97721.86
2023-03-21T21:50:49.181Z,97721.87
2023-03-21T21:53:15.516Z,97722.33
2023-03-21T21:55:43.168Z,97721.29
2023-03-21T21:58:09.754Z,97715.41
2023-03-21T22:00:37.489Z,97714.64
2023-03-21T22:03:04.428Z,97712.09
2023-03-21T22:05:31.057Z,97714.27
2023-03-21T22:07:57.513Z,97718.15
2023-03-21T22:10:25.040Z,97720.52
2023-03-21T22:12:52.087Z,97721.02
2023-03-21T22:15:18.584Z,97724.21
2023-03-21T22:17:44.915Z,97723.00
2023-03-21T22:20:15.474Z,97720.62
2023-03-21T22:22:42.139Z,97721.48
2023-03-21T22:25:10.297Z,97718.05
2023-03-21T22:27:37.022Z,97718.02
2023-03-21T22:30:04.126Z,97712.07
2023-03-21T22:32:30.979Z,97710.59
2023-03-21T22:34:57.561Z,97710.23
2023-03-21T22:37:24.242Z,97707.64
2023-03-21T22:39:50.535Z,97706.77
2023-03-21T22:42:17.187Z,97709.75
2023-03-21T22:44:43.460Z,97712.56
2023-03-21T22:47:10.495Z,97718.25
2023-03-21T22:49:38.222Z,97715.81
2023-03-21T22:52:05.398Z,97714.08
2023-03-21T22:54:32.002Z,97708.20
2023-03-21T22:56:58.713Z,97713.01
2023-03-21T22:59:25.499Z,97714.70
2023-03-21T23:01:51.854Z,97712.32
2023-03-21T23:04:18.718Z,97708.27
2023-03-21T23:06:45.158Z,97704.94
2023-03-21T23:09:12.017Z,97705.67
2023-03-21T23:11:39.320Z,97706.21
2023-03-21T23:14:08.348Z,97701.02
2023-03-21T23:16:35.167Z,97703.73
2023-03-21T23:19:01.858Z,97699.73
2023-03-21T23:21:28.156Z,97703.44
2023-03-21T23:23:54.460Z,97701.02
2023-03-21T23:26:22.127Z,97701.21
2023-03-21T23:28:49.089Z,97695.73
2023-03-21T23:31:19.506Z,97696.70
2023-03-21T23:33:46.930Z,97694.17
2023-03-21T23:36:14.041Z,97690.96
2023-03-21T23:38:40.854Z,97692.95
2023-03-21T23:41:08.181Z,97690.08
2023-03-21T23:43:34.815Z,97685.29
2023-03-21T23:46:01.460Z,97676.02
2023-03-21T23:48:28.010Z,97671.81
2023-03-21T23:50:54.547Z,97670.95
2023-03-21T23:53:21.085Z,97668.08
2023-03-21T23:55:47.739Z,97668.27
2023-03-21T23:58:14.025Z,97667.02
